Aérodrome :
LOGIN :

S'inscrire | Disclaimer

   EN    FR    IT 

 










Légende :    VFR   VFR Marginal   IFR   IFR Intensif   IFR Très Intensif
Visi : 
Plafond : 
>= 8 km
>= 3000ft
5 à 8 km
1000 à 3000 ft
1500m à 5 km
500 à 1000 ft
800 à 1500m
200 à 500 ft
< 800m
< 200 ft
Symboles :   Orages  Brouillard  Fortes neiges  Fortes précipitations  Vent > 20 kt
SIGMETs :   Divers  Orages  Givrage  Turbulence  Onde Orograph.  Cendres Volcan.






- Altitude de l'aérodrome : 0 ft


ENLA - Ula Platform

DERNIER METAR :
  • 151750Z AUTO 15015KT 0150NDV FG NCD 12/12 Q0997 W///S4

METARs EXPIRÉS :
  • 151720Z AUTO 15015KT 0650NDV FG BKN003/// 12/12 Q0997 W///S5
  • 151650Z AUTO 16020KT 5000NDV BKN004/// 12/12 Q0996 W///S4
  • 151620Z AUTO 14018KT 0200NDV FG NCD 12/12 Q0996 W///S4
  • 151550Z AUTO 15013KT 2700NDV BR OVC003/// 12/12 Q0996 W///S5
  • 151520Z AUTO 15018KT 5000NDV OVC004/// 12/12 Q0997 W///S4

TAF N/A



MET'MAP, la Météo Aéronautique d'un coup d'oeil ! - Copyright ORBIFLY Décembre 2007 - Disclaimer

ORBIFLY MET'MAP TEAM :

Programmation & Développement : Alexandra Zaïnal
Conception & Développement : Baudouin d'Aumeries
Co-Programmation & Développement : Marc-Olivier Méhu
Soutien technique & logistique : Manuel Goepfert

Contact : metmap@orbifly.com




SOURCES & CREDITS :

   NOAA